Time;durP1;ratioP1;P1;durP2;ratioP2;P2;SDS_P1;SDS_P2;PMS_P1;PMS_P2;Temp;Humidity;BMP_temperature;BMP_pressure;BME280_temperature;BME280_humidity;BME280_pressure;Samples;Min_cycle;Max_cycle;Signal;HPM_P1;HPM_P2
2023/12/20 00:01:11;;;;;;;3.28;1.20;;;7.30;99.90;;;;;;5021738;28;20054;-77
2023/12/20 00:03:38;;;;;;;3.15;1.50;;;7.30;99.90;;;;;;5011157;28;20492;-79
2023/12/20 00:06:08;;;;;;;4.43;1.20;;;7.30;99.90;;;;;;5014790;28;20050;-76
2023/12/20 00:08:36;;;;;;;2.38;1.50;;;7.30;99.90;;;;;;5011834;28;20417;-77
2023/12/20 00:11:03;;;;;;;4.47;2.97;;;7.30;99.90;;;;;;5013992;28;20046;-77
2023/12/20 00:13:29;;;;;;;4.93;3.22;;;7.30;99.90;;;;;;5012419;28;20045;-79
2023/12/20 00:15:56;;;;;;;3.35;2.50;;;7.30;99.90;;;;;;5013346;28;20050;-79
2023/12/20 00:18:23;;;;;;;3.58;3.00;;;7.30;99.90;;;;;;5008997;28;20048;-79
2023/12/20 00:20:50;;;;;;;5.65;2.58;;;7.30;99.90;;;;;;5011319;28;20097;-77
2023/12/20 00:23:17;;;;;;;3.63;2.25;;;7.30;99.90;;;;;;5013192;28;20046;-79
2023/12/20 00:25:44;;;;;;;2.85;1.92;;;7.20;99.90;;;;;;5013747;28;20082;-78
2023/12/20 00:28:10;;;;;;;2.90;2.35;;;7.20;99.90;;;;;;5012671;28;20125;-78
2023/12/20 00:30:37;;;;;;;4.70;2.38;;;7.10;99.90;;;;;;5011714;28;20581;-78
2023/12/20 00:33:04;;;;;;;3.65;2.05;;;7.10;99.90;;;;;;5013286;28;20050;-78
2023/12/20 00:35:31;;;;;;;3.53;2.28;;;7.10;99.90;;;;;;5010017;28;20053;-79
2023/12/20 00:37:58;;;;;;;3.33;2.20;;;7.10;99.90;;;;;;5011060;28;20050;-78
2023/12/20 00:40:25;;;;;;;3.08;2.25;;;7.10;99.90;;;;;;5010748;28;20041;-79
2023/12/20 00:42:52;;;;;;;2.10;1.52;;;7.10;99.90;;;;;;5025725;28;20104;-78
2023/12/20 00:45:19;;;;;;;2.60;1.90;;;7.10;99.90;;;;;;5010703;28;20042;-79
2023/12/20 00:47:46;;;;;;;3.15;2.08;;;7.10;99.90;;;;;;5010237;28;20054;-79
2023/12/20 00:50:13;;;;;;;2.65;1.65;;;7.10;99.90;;;;;;5008903;28;20180;-77
2023/12/20 00:52:40;;;;;;;3.03;1.90;;;7.10;99.90;;;;;;5012199;28;20078;-80
2023/12/20 00:55:07;;;;;;;4.13;1.95;;;7.10;99.90;;;;;;5014167;28;20050;-77
2023/12/20 00:57:34;;;;;;;2.67;1.80;;;7.10;99.90;;;;;;5014292;28;20046;-77
2023/12/20 01:00:02;;;;;;;2.15;1.65;;;7.10;99.90;;;;;;5010664;28;20132;-78
2023/12/20 01:02:29;;;;;;;2.13;1.40;;;7.20;99.90;;;;;;5012305;28;20504;-78
2023/12/20 01:04:55;;;;;;;1.98;1.67;;;7.20;99.90;;;;;;5012612;28;20050;-78
2023/12/20 01:07:22;;;;;;;2.60;1.90;;;7.20;99.90;;;;;;5013666;28;20073;-78
2023/12/20 01:09:49;;;;;;;3.53;1.70;;;7.20;99.90;;;;;;5010686;28;20050;-79
2023/12/20 01:12:16;;;;;;;2.65;1.80;;;7.20;99.90;;;;;;5025453;28;20081;-79
2023/12/20 01:14:42;;;;;;;1.90;1.48;;;7.20;99.90;;;;;;5011229;28;20552;-78
2023/12/20 01:17:09;;;;;;;3.60;1.60;;;7.10;99.90;;;;;;5014101;28;20105;-79
2023/12/20 01:19:36;;;;;;;3.10;1.77;;;7.20;99.90;;;;;;5013676;28;20421;-78
2023/12/20 01:22:03;;;;;;;2.53;2.03;;;7.20;99.90;;;;;;5006681;28;20450;-79
2023/12/20 01:24:30;;;;;;;2.58;1.27;;;7.10;99.90;;;;;;5013557;28;20049;-79
2023/12/20 01:26:57;;;;;;;1.77;1.50;;;7.10;99.90;;;;;;5009108;28;20133;-77
2023/12/20 01:29:24;;;;;;;1.95;1.60;;;7.10;99.90;;;;;;5009881;28;20042;-79
2023/12/20 01:31:50;;;;;;;1.38;1.20;;;7.10;99.90;;;;;;5010142;28;20046;-78
2023/12/20 01:34:18;;;;;;;1.52;1.40;;;7.10;99.90;;;;;;5010088;28;20047;-79
2023/12/20 01:36:45;;;;;;;2.50;1.70;;;7.10;99.90;;;;;;5013462;28;20100;-79
2023/12/20 01:39:11;;;;;;;2.08;1.52;;;7.10;99.90;;;;;;5012222;28;20050;-79
2023/12/20 01:41:53;;;;;;;3.08;1.40;;;7.10;99.90;;;;;;5015266;28;20073;-78
2023/12/20 01:44:20;;;;;;;1.50;1.20;;;7.10;99.90;;;;;;5011654;28;20058;-78
2023/12/20 01:46:47;;;;;;;2.20;1.50;;;7.10;99.90;;;;;;5020130;28;20060;-79
2023/12/20 01:49:15;;;;;;;1.38;1.10;;;7.10;99.90;;;;;;5014576;28;20053;-79
2023/12/20 01:51:43;;;;;;;2.63;1.30;;;7.00;99.90;;;;;;5020643;28;20050;-79
2023/12/20 01:54:10;;;;;;;2.15;1.08;;;7.00;99.90;;;;;;5014391;28;20101;-78
2023/12/20 01:56:37;;;;;;;1.65;1.23;;;7.00;99.90;;;;;;5023341;28;20057;-79
2023/12/20 01:59:04;;;;;;;1.52;1.25;;;7.00;99.90;;;;;;5015702;28;20085;-79
2023/12/20 02:01:31;;;;;;;3.33;1.70;;;7.00;99.90;;;;;;5019485;28;20054;-79
2023/12/20 02:04:00;;;;;;;1.80;1.55;;;7.10;99.90;;;;;;5015556;28;20108;-79
2023/12/20 02:06:31;;;;;;;1.75;1.38;;;7.00;99.90;;;;;;5017013;28;20428;-78
2023/12/20 02:08:58;;;;;;;2.08;1.35;;;7.00;99.90;;;;;;5020154;28;20421;-77
2023/12/20 02:11:26;;;;;;;1.98;1.50;;;7.00;99.90;;;;;;5018116;28;20045;-79
2023/12/20 02:13:53;;;;;;;1.70;1.60;;;7.00;99.90;;;;;;5022113;28;20049;-79
2023/12/20 02:16:21;;;;;;;3.20;1.45;;;7.00;99.90;;;;;;5017753;28;20391;-79
2023/12/20 02:18:48;;;;;;;2.05;1.60;;;7.00;99.90;;;;;;5017147;28;20053;-78
2023/12/20 02:21:15;;;;;;;2.75;1.50;;;7.00;99.90;;;;;;5018414;28;20054;-79
2023/12/20 02:23:41;;;;;;;2.80;1.50;;;7.00;99.90;;;;;;5020535;28;20050;-79
2023/12/20 02:26:08;;;;;;;2.65;1.90;;;7.00;99.90;;;;;;5013739;28;20121;-78
2023/12/20 02:28:35;;;;;;;2.65;1.30;;;7.00;99.90;;;;;;5017966;28;20046;-80
2023/12/20 02:31:02;;;;;;;2.30;2.08;;;7.00;99.90;;;;;;5016743;28;20108;-78
2023/12/20 02:33:29;;;;;;;2.47;1.88;;;7.00;99.90;;;;;;5015728;28;20073;-78
2023/12/20 02:35:56;;;;;;;1.95;1.70;;;7.00;99.90;;;;;;5014724;28;20056;-79
2023/12/20 02:38:23;;;;;;;1.40;1.30;;;7.00;99.90;;;;;;5030684;28;20085;-79
2023/12/20 02:40:50;;;;;;;2.92;1.65;;;7.00;99.90;;;;;;5017838;28;20469;-78
2023/12/20 02:43:16;;;;;;;2.83;1.52;;;7.00;99.90;;;;;;5015933;28;20050;-78
2023/12/20 02:45:43;;;;;;;3.08;1.90;;;7.00;99.90;;;;;;5021393;28;20046;-78
2023/12/20 02:48:10;;;;;;;2.78;1.90;;;7.00;99.90;;;;;;5015732;28;20042;-79
2023/12/20 02:50:37;;;;;;;2.08;1.70;;;7.00;99.90;;;;;;5018320;28;20048;-79
2023/12/20 02:53:04;;;;;;;1.60;1.48;;;7.00;99.90;;;;;;5016059;28;20191;-77
2023/12/20 02:55:30;;;;;;;2.22;1.50;;;7.00;99.90;;;;;;5017181;28;20041;-78
2023/12/20 02:57:57;;;;;;;2.90;1.27;;;7.00;99.90;;;;;;5010314;28;20042;-78
2023/12/20 03:00:24;;;;;;;2.22;1.40;;;7.00;99.90;;;;;;5016928;28;20054;-78
2023/12/20 03:02:51;;;;;;;1.63;1.27;;;7.00;99.90;;;;;;5018666;28;20054;-79
2023/12/20 03:05:17;;;;;;;2.13;1.50;;;7.00;99.90;;;;;;5013840;28;20069;-78
2023/12/20 03:07:45;;;;;;;1.85;1.40;;;7.00;99.90;;;;;;5012271;28;20054;-78
2023/12/20 03:10:12;;;;;;;1.75;1.42;;;7.00;99.90;;;;;;5013138;28;20050;-79
2023/12/20 03:12:49;;;;;;;2.17;1.50;;;7.00;99.90;;;;;;5010324;28;20053;-79
2023/12/20 03:15:16;;;;;;;1.73;1.17;;;7.00;99.90;;;;;;5010799;28;20050;-78
2023/12/20 03:17:43;;;;;;;1.25;1.15;;;7.10;99.90;;;;;;5014111;28;20501;-79
2023/12/20 03:20:11;;;;;;;1.30;1.20;;;7.10;99.90;;;;;;5015136;28;20054;-78
2023/12/20 03:22:37;;;;;;;1.30;1.20;;;7.10;99.90;;;;;;5013520;28;20049;-77
2023/12/20 03:25:04;;;;;;;2.20;1.50;;;7.10;99.90;;;;;;5010587;28;20118;-78
2023/12/20 03:27:31;;;;;;;2.30;1.33;;;7.10;99.90;;;;;;5017057;28;20133;-79
2023/12/20 03:29:58;;;;;;;1.85;1.00;;;7.10;99.90;;;;;;5013398;28;20053;-78
2023/12/20 03:32:25;;;;;;;3.13;1.17;;;7.10;99.90;;;;;;5016597;28;20490;-77
2023/12/20 03:34:51;;;;;;;1.45;1.00;;;7.10;99.90;;;;;;5009502;28;20084;-78
2023/12/20 03:37:18;;;;;;;2.70;1.10;;;7.10;99.90;;;;;;5014558;28;20134;-77
2023/12/20 03:39:45;;;;;;;1.45;0.85;;;7.10;99.90;;;;;;5011020;28;20494;-77
2023/12/20 03:42:13;;;;;;;1.65;1.27;;;7.10;99.90;;;;;;5012620;28;20046;-76
2023/12/20 03:44:42;;;;;;;1.00;0.90;;;7.10;99.90;;;;;;5011028;28;20073;-77
2023/12/20 03:47:09;;;;;;;2.40;1.10;;;7.10;99.90;;;;;;5013677;28;20112;-78
2023/12/20 03:49:37;;;;;;;1.75;1.17;;;7.10;99.90;;;;;;5013970;28;20049;-77
2023/12/20 03:52:05;;;;;;;1.58;0.90;;;7.10;99.90;;;;;;5010800;28;20108;-78
2023/12/20 03:54:31;;;;;;;1.83;1.00;;;7.10;99.90;;;;;;5011850;28;20077;-77
2023/12/20 03:56:58;;;;;;;0.90;0.90;;;7.10;99.90;;;;;;5010187;28;20077;-77
2023/12/20 03:59:25;;;;;;;0.90;0.88;;;7.10;99.90;;;;;;5010064;28;20077;-77
2023/12/20 04:01:51;;;;;;;0.82;0.80;;;7.10;99.90;;;;;;5009686;28;20050;-79
2023/12/20 04:04:19;;;;;;;1.70;0.93;;;7.10;99.90;;;;;;5012535;28;20132;-79
2023/12/20 04:06:46;;;;;;;0.80;0.80;;;7.10;99.90;;;;;;5009595;28;20046;-79
2023/12/20 04:09:12;;;;;;;1.20;1.10;;;7.10;99.90;;;;;;5009433;28;20046;-77
2023/12/20 04:11:39;;;;;;;2.67;1.13;;;7.10;99.90;;;;;;5014098;28;20050;-77
2023/12/20 04:14:07;;;;;;;1.00;0.90;;;7.10;99.90;;;;;;5013600;28;20045;-78
2023/12/20 04:16:34;;;;;;;0.90;0.90;;;7.10;99.90;;;;;;5010341;28;20490;-79
2023/12/20 04:19:01;;;;;;;0.93;0.90;;;7.10;99.90;;;;;;5011122;28;20092;-76
2023/12/20 04:21:28;;;;;;;1.95;1.00;;;7.10;99.90;;;;;;5026172;28;20054;-79
2023/12/20 04:23:54;;;;;;;0.82;0.80;;;7.10;99.90;;;;;;5009570;28;20047;-78
2023/12/20 04:26:21;;;;;;;0.95;0.90;;;7.10;99.90;;;;;;5012091;28;20490;-78
2023/12/20 04:28:48;;;;;;;0.95;0.93;;;7.10;99.90;;;;;;5010706;28;20103;-79
2023/12/20 04:31:16;;;;;;;0.73;0.70;;;7.10;99.90;;;;;;5014091;28;20468;-77
2023/12/20 04:33:42;;;;;;;1.13;0.90;;;7.10;99.90;;;;;;5006926;28;20048;-77
2023/12/20 04:36:10;;;;;;;0.82;0.80;;;7.10;99.90;;;;;;5011180;28;20252;-77
2023/12/20 04:38:36;;;;;;;0.90;0.90;;;7.10;99.90;;;;;;5028682;28;20084;-79
2023/12/20 04:41:03;;;;;;;2.90;0.98;;;7.10;99.90;;;;;;5010910;28;20068;-77
2023/12/20 04:43:30;;;;;;;1.10;1.00;;;7.10;99.90;;;;;;5009662;28;20089;-79
2023/12/20 04:45:57;;;;;;;0.90;0.82;;;7.10;99.90;;;;;;5013464;28;20049;-79
2023/12/20 04:48:23;;;;;;;1.02;0.93;;;7.10;99.90;;;;;;5022629;28;20057;-77
2023/12/20 04:50:50;;;;;;;1.05;0.95;;;7.10;99.90;;;;;;5012060;28;20052;-78
2023/12/20 04:53:17;;;;;;;1.27;1.15;;;7.10;99.90;;;;;;5008552;28;20080;-79
2023/12/20 04:55:43;;;;;;;1.27;1.10;;;7.10;99.90;;;;;;5012291;28;20073;-78
2023/12/20 04:58:10;;;;;;;1.00;1.00;;;7.10;99.90;;;;;;5012309;28;20046;-77
2023/12/20 05:00:37;;;;;;;1.05;0.95;;;7.10;99.90;;;;;;5011435;28;20049;-78
2023/12/20 05:03:04;;;;;;;1.77;1.30;;;7.10;99.90;;;;;;5015679;28;20057;-77
2023/12/20 05:05:30;;;;;;;1.20;1.10;;;7.10;99.90;;;;;;5009897;28;20497;-78
2023/12/20 05:07:58;;;;;;;1.10;1.00;;;7.20;99.90;;;;;;5010699;28;20057;-77
2023/12/20 05:10:26;;;;;;;1.17;1.08;;;7.20;99.90;;;;;;5010827;28;20046;-77
2023/12/20 05:12:53;;;;;;;0.88;0.85;;;7.20;99.90;;;;;;5012774;28;20426;-77
2023/12/20 05:15:20;;;;;;;1.25;1.00;;;7.20;99.90;;;;;;5007730;28;20137;-77
2023/12/20 05:17:47;;;;;;;1.73;1.00;;;7.20;99.90;;;;;;5014241;28;20041;-80
2023/12/20 05:20:14;;;;;;;1.50;1.08;;;7.20;99.90;;;;;;5009610;28;20042;-78
2023/12/20 05:22:41;;;;;;;2.78;1.20;;;7.20;99.90;;;;;;5012159;28;20046;-77
2023/12/20 05:25:08;;;;;;;1.70;0.77;;;7.20;99.90;;;;;;5007229;28;20051;-79
2023/12/20 05:27:35;;;;;;;1.60;1.20;;;7.20;99.90;;;;;;5010111;28;20569;-78
2023/12/20 05:30:02;;;;;;;1.25;1.15;;;7.20;99.90;;;;;;5008757;28;20383;-77
2023/12/20 05:32:28;;;;;;;1.30;0.95;;;7.20;99.90;;;;;;5010980;28;20130;-78
2023/12/20 05:34:55;;;;;;;2.45;0.88;;;7.20;99.90;;;;;;5009480;28;20105;-78
2023/12/20 05:37:22;;;;;;;1.02;0.80;;;7.20;99.90;;;;;;5009080;28;20573;-77
2023/12/20 05:39:49;;;;;;;2.25;0.90;;;7.20;99.90;;;;;;5010287;28;20080;-79
2023/12/20 05:42:16;;;;;;;1.05;0.98;;;7.20;99.90;;;;;;5008624;28;20054;-78
2023/12/20 05:44:42;;;;;;;1.40;1.20;;;7.20;99.90;;;;;;5010860;28;20050;-79
2023/12/20 05:47:09;;;;;;;1.35;1.10;;;7.20;99.90;;;;;;5009379;28;20072;-77
2023/12/20 05:49:36;;;;;;;3.45;1.00;;;7.20;99.90;;;;;;5010065;28;20069;-78
2023/12/20 05:52:03;;;;;;;0.70;0.70;;;7.20;99.90;;;;;;5009434;28;20076;-79
2023/12/20 05:54:30;;;;;;;2.30;0.80;;;7.20;99.90;;;;;;5027151;28;20512;-79
2023/12/20 05:56:57;;;;;;;0.77;0.70;;;7.30;99.90;;;;;;5008410;28;20120;-79
2023/12/20 05:59:23;;;;;;;0.65;0.65;;;7.20;99.90;;;;;;5010022;28;20102;-78
2023/12/20 06:01:50;;;;;;;1.08;0.95;;;7.20;99.90;;;;;;5009646;28;20042;-79
2023/12/20 06:04:17;;;;;;;1.02;0.80;;;7.30;99.90;;;;;;5010444;28;20105;-78
2023/12/20 06:06:45;;;;;;;0.98;0.95;;;7.30;99.90;;;;;;5023796;28;20105;-78
2023/12/20 06:09:12;;;;;;;1.17;0.90;;;7.30;99.90;;;;;;5010832;28;20081;-77
2023/12/20 06:11:39;;;;;;;0.98;0.80;;;7.30;99.90;;;;;;5014211;28;20125;-79
2023/12/20 06:14:05;;;;;;;1.08;0.80;;;7.30;99.90;;;;;;5008014;28;20560;-77
2023/12/20 06:16:32;;;;;;;1.00;0.90;;;7.30;99.90;;;;;;5011492;28;20150;-78
2023/12/20 06:18:59;;;;;;;1.58;1.10;;;7.30;99.90;;;;;;5010726;28;20074;-77
2023/12/20 06:21:26;;;;;;;1.77;1.13;;;7.30;99.90;;;;;;5008717;28;20506;-77
2023/12/20 06:23:52;;;;;;;1.13;1.00;;;7.30;99.90;;;;;;5009050;28;20490;-78
2023/12/20 06:26:19;;;;;;;1.02;0.93;;;7.30;99.90;;;;;;5013292;28;20104;-78
2023/12/20 06:28:46;;;;;;;2.72;1.15;;;7.30;99.90;;;;;;5011427;28;20074;-79
2023/12/20 06:31:13;;;;;;;1.33;1.20;;;7.30;99.90;;;;;;5008600;28;20065;-78
2023/12/20 06:33:41;;;;;;;2.15;1.95;;;7.30;99.90;;;;;;5010577;28;20050;-77
2023/12/20 06:36:10;;;;;;;1.33;1.23;;;7.30;99.90;;;;;;5014917;28;20046;-79
2023/12/20 06:38:37;;;;;;;0.52;0.50;;;7.30;99.90;;;;;;5008084;28;20093;-78
2023/12/20 06:41:03;;;;;;;0.75;0.75;;;7.30;99.90;;;;;;5014685;28;20053;-79
2023/12/20 06:43:30;;;;;;;1.20;0.93;;;7.30;99.90;;;;;;5009457;28;20054;-77
2023/12/20 06:46:14;;;;;;;1.35;1.00;;;7.30;99.90;;;;;;5009756;28;20056;-78
2023/12/20 06:48:41;;;;;;;5.43;1.77;;;7.30;99.90;;;;;;5014161;28;20117;-78
2023/12/20 06:51:15;;;;;;;1.52;1.27;;;7.30;99.90;;;;;;5013027;28;20042;-79
2023/12/20 06:53:43;;;;;;;1.88;1.35;;;7.30;99.90;;;;;;5012925;28;20045;-77
2023/12/20 06:56:12;;;;;;;1.17;0.80;;;7.30;99.90;;;;;;5010606;28;20125;-77
2023/12/20 06:58:43;;;;;;;1.48;0.80;;;7.30;99.90;;;;;;5014638;28;20049;-77
2023/12/20 07:01:13;;;;;;;1.00;0.90;;;7.30;99.90;;;;;;5009789;28;20464;-78
2023/12/20 07:03:41;;;;;;;0.98;0.88;;;7.30;99.90;;;;;;5015193;28;20055;-78
2023/12/20 07:06:08;;;;;;;1.05;0.75;;;7.30;99.90;;;;;;5011643;28;20057;-79
2023/12/20 07:08:35;;;;;;;1.75;1.02;;;7.30;99.90;;;;;;5012904;28;20113;-77
2023/12/20 07:11:02;;;;;;;1.15;0.80;;;7.30;99.90;;;;;;5011477;28;20124;-77
2023/12/20 07:13:29;;;;;;;1.10;0.90;;;7.30;99.90;;;;;;5012812;28;20050;-79
2023/12/20 07:15:56;;;;;;;0.90;0.70;;;7.30;99.90;;;;;;5011596;28;20446;-78
2023/12/20 07:18:23;;;;;;;0.80;0.80;;;7.30;99.90;;;;;;5011608;28;20533;-80
2023/12/20 07:20:50;;;;;;;1.13;1.02;;;7.30;99.90;;;;;;5013557;28;20109;-77
2023/12/20 07:23:17;;;;;;;0.70;0.70;;;7.30;99.90;;;;;;5011976;28;20096;-76
2023/12/20 07:25:43;;;;;;;1.00;0.90;;;7.30;99.90;;;;;;5012397;28;20097;-79
2023/12/20 07:28:10;;;;;;;0.75;0.75;;;7.30;99.90;;;;;;5014981;28;20046;-79
2023/12/20 07:30:37;;;;;;;1.10;1.00;;;7.30;99.90;;;;;;5015851;28;20057;-77
2023/12/20 07:33:04;;;;;;;1.13;1.00;;;7.30;99.90;;;;;;5010937;28;20417;-78
2023/12/20 07:35:31;;;;;;;0.80;0.80;;;7.30;99.90;;;;;;5014004;28;20053;-77
2023/12/20 07:37:58;;;;;;;1.20;1.00;;;7.30;99.90;;;;;;5011086;28;20049;-80
2023/12/20 07:40:25;;;;;;;1.33;0.80;;;7.30;99.90;;;;;;5012486;28;20053;-78
2023/12/20 07:42:52;;;;;;;3.72;2.45;;;7.30;99.90;;;;;;5010087;28;20417;-78
2023/12/20 07:45:18;;;;;;;4.70;3.28;;;7.30;99.90;;;;;;5013274;28;20045;-78
2023/12/20 07:47:45;;;;;;;3.22;2.15;;;7.30;99.90;;;;;;5010208;28;20049;-78
2023/12/20 07:50:12;;;;;;;3.20;2.20;;;7.30;99.90;;;;;;5012569;28;20072;-77
2023/12/20 07:52:39;;;;;;;3.65;2.33;;;7.40;99.90;;;;;;5014543;28;20056;-78
2023/12/20 07:55:06;;;;;;;1.55;1.10;;;7.40;99.90;;;;;;5013083;28;20041;-77
2023/12/20 07:57:33;;;;;;;2.03;1.38;;;7.40;99.90;;;;;;5009945;28;20052;-78
2023/12/20 08:00:00;;;;;;;4.10;1.50;;;7.40;99.90;;;;;;5011444;28;20085;-77
2023/12/20 08:02:27;;;;;;;1.15;1.05;;;7.40;99.90;;;;;;5011498;28;20049;-79
2023/12/20 08:04:53;;;;;;;1.10;1.00;;;7.40;99.90;;;;;;5013072;28;20088;-77
2023/12/20 08:07:20;;;;;;;1.02;0.82;;;7.40;99.90;;;;;;5010966;28;20038;-78
2023/12/20 08:09:47;;;;;;;1.08;0.98;;;7.50;99.90;;;;;;5009408;28;20053;-79
2023/12/20 08:12:15;;;;;;;1.45;1.00;;;7.50;99.90;;;;;;5011536;28;20049;-78
2023/12/20 08:14:42;;;;;;;2.10;0.82;;;7.40;99.90;;;;;;5008614;28;20080;-78
2023/12/20 08:17:08;;;;;;;1.60;1.10;;;7.50;99.90;;;;;;5013847;28;20046;-78
2023/12/20 08:19:35;;;;;;;1.10;1.00;;;7.50;99.90;;;;;;5006667;28;20080;-78
2023/12/20 08:22:02;;;;;;;1.10;1.00;;;7.50;99.90;;;;;;5013339;28;20544;-78
2023/12/20 08:24:30;;;;;;;1.33;1.10;;;7.50;99.90;;;;;;5008963;28;20054;-79
2023/12/20 08:26:56;;;;;;;1.67;1.42;;;7.50;99.90;;;;;;5010116;28;20050;-79
2023/12/20 08:29:23;;;;;;;0.90;0.90;;;7.50;99.90;;;;;;5008334;28;20137;-79
2023/12/20 08:31:54;;;;;;;1.10;1.00;;;7.50;99.90;;;;;;5010710;28;20184;-79
2023/12/20 08:34:21;;;;;;;1.02;1.00;;;7.50;99.90;;;;;;5011930;28;20041;-79
2023/12/20 08:36:48;;;;;;;1.80;1.40;;;7.50;99.90;;;;;;5009838;28;20085;-77
2023/12/20 08:39:14;;;;;;;1.60;1.15;;;7.40;99.90;;;;;;5011697;28;20045;-79
2023/12/20 08:41:41;;;;;;;2.83;1.30;;;7.50;99.90;;;;;;5009242;28;20052;-79
2023/12/20 08:44:09;;;;;;;1.70;1.50;;;7.50;99.90;;;;;;5013058;28;20073;-77
2023/12/20 08:46:36;;;;;;;1.65;1.40;;;7.50;99.90;;;;;;5008626;28;20050;-79
2023/12/20 08:49:02;;;;;;;1.90;1.58;;;7.50;99.90;;;;;;5013356;28;20069;-79
2023/12/20 08:51:29;;;;;;;2.13;1.75;;;7.50;99.90;;;;;;5007280;28;20110;-77
2023/12/20 08:53:56;;;;;;;2.83;1.80;;;7.50;99.90;;;;;;5011222;28;20115;-78
2023/12/20 08:56:23;;;;;;;2.45;1.90;;;7.50;99.90;;;;;;5011938;28;20068;-79
2023/12/20 08:58:49;;;;;;;1.85;1.65;;;7.50;99.90;;;;;;5011438;28;20047;-79
2023/12/20 09:01:16;;;;;;;2.10;1.70;;;7.50;99.90;;;;;;5009259;28;20049;-78
2023/12/20 09:03:43;;;;;;;3.38;2.30;;;7.60;99.90;;;;;;5009276;28;20055;-79
2023/12/20 09:06:10;;;;;;;2.67;1.80;;;7.60;99.90;;;;;;5007367;28;20056;-77
2023/12/20 09:08:37;;;;;;;4.13;2.40;;;7.60;99.90;;;;;;5004989;28;20388;-76
2023/12/20 09:11:04;;;;;;;3.38;2.33;;;7.60;99.90;;;;;;5009242;28;20152;-78
2023/12/20 09:13:31;;;;;;;4.28;2.65;;;7.60;99.90;;;;;;5004914;28;20050;-79
2023/12/20 09:15:58;;;;;;;3.50;2.08;;;7.60;99.90;;;;;;5011255;28;20517;-77
2023/12/20 09:18:25;;;;;;;4.13;2.35;;;7.60;99.90;;;;;;5004126;28;20414;-78
2023/12/20 09:20:52;;;;;;;5.45;3.13;;;7.70;99.90;;;;;;5008789;28;20085;-78
2023/12/20 09:23:19;;;;;;;3.88;2.60;;;7.70;99.90;;;;;;5009083;28;20498;-77
2023/12/20 09:25:46;;;;;;;3.58;2.70;;;7.70;99.90;;;;;;5023297;28;20396;-77
2023/12/20 09:28:12;;;;;;;9.13;2.53;;;7.70;99.90;;;;;;5010864;28;20478;-79
2023/12/20 09:30:39;;;;;;;2.70;2.15;;;7.70;99.90;;;;;;5007548;28;20090;-78
2023/12/20 09:33:07;;;;;;;3.03;2.30;;;7.70;99.90;;;;;;5005907;28;20068;-77
2023/12/20 09:35:35;;;;;;;2.60;1.83;;;7.80;99.90;;;;;;5006576;28;20469;-77
2023/12/20 09:38:02;;;;;;;3.22;2.08;;;7.80;99.90;;;;;;5005245;28;20046;-78
2023/12/20 09:40:31;;;;;;;2.40;2.03;;;7.80;99.90;;;;;;5005807;28;20739;-77
2023/12/20 09:43:03;;;;;;;3.88;2.78;;;7.80;99.90;;;;;;5022255;28;20041;-78
2023/12/20 09:45:32;;;;;;;2.88;2.30;;;7.80;99.90;;;;;;5005217;28;20517;-77
2023/12/20 09:47:59;;;;;;;3.35;2.83;;;7.90;99.90;;;;;;5010458;28;20046;-79
2023/12/20 09:50:27;;;;;;;3.47;2.50;;;7.90;99.90;;;;;;5003814;28;20498;-78
2023/12/20 09:52:58;;;;;;;3.88;2.60;;;7.90;99.90;;;;;;5008757;28;20609;-77
2023/12/20 09:55:25;;;;;;;4.18;2.20;;;7.90;99.90;;;;;;5008274;28;20042;-77
2023/12/20 09:57:52;;;;;;;2.75;2.33;;;8.00;99.90;;;;;;5008378;28;20050;-79
2023/12/20 10:00:19;;;;;;;3.15;2.08;;;8.00;99.90;;;;;;5003296;28;20536;-77
2023/12/20 10:02:54;;;;;;;3.45;2.30;;;8.00;99.90;;;;;;5007069;28;20506;-79
2023/12/20 10:05:30;;;;;;;1.92;1.52;;;8.00;99.90;;;;;;5009436;28;20457;-79
2023/12/20 10:07:58;;;;;;;3.45;1.60;;;8.10;99.90;;;;;;5012523;28;20092;-78
2023/12/20 10:10:26;;;;;;;2.80;2.28;;;8.10;99.90;;;;;;5008734;28;20085;-77
2023/12/20 10:13:09;;;;;;;2.83;2.42;;;8.20;99.90;;;;;;5005827;28;20078;-79
2023/12/20 10:15:37;;;;;;;2.28;1.80;;;8.20;99.90;;;;;;5011801;28;20073;-78
2023/12/20 10:18:05;;;;;;;3.08;2.38;;;8.20;99.90;;;;;;5008729;28;20046;-77
2023/12/20 10:20:32;;;;;;;2.63;1.95;;;8.30;99.90;;;;;;5009176;28;20058;-78
2023/12/20 10:23:00;;;;;;;2.85;2.13;;;8.30;99.90;;;;;;5014414;28;20050;-78
2023/12/20 10:25:28;;;;;;;3.30;2.08;;;8.30;99.90;;;;;;5010169;28;20050;-77
2023/12/20 10:28:22;;;;;;;3.38;2.25;;;8.40;99.90;;;;;;5008456;28;20053;-78
2023/12/20 10:30:49;;;;;;;2.17;1.90;;;8.40;99.90;;;;;;5010487;28;20058;-76
2023/12/20 10:33:27;;;;;;;3.40;2.30;;;8.40;99.90;;;;;;5014374;28;20046;-78
2023/12/20 10:35:55;;;;;;;4.70;2.08;;;8.50;99.90;;;;;;5008990;28;20046;-78
2023/12/20 10:38:22;;;;;;;3.45;2.42;;;8.50;99.90;;;;;;5010461;28;20111;-79
2023/12/20 10:40:53;;;;;;;3.78;2.70;;;8.50;99.90;;;;;;5008299;28;20051;-77
2023/12/20 10:43:20;;;;;;;3.60;2.75;;;8.50;99.90;;;;;;5014671;28;20046;-78
2023/12/20 10:45:47;;;;;;;2.90;2.33;;;8.50;99.90;;;;;;5011886;28;20550;-79
2023/12/20 10:48:14;;;;;;;4.32;2.60;;;8.40;99.90;;;;;;5012069;28;20042;-79
2023/12/20 10:50:41;;;;;;;3.35;2.20;;;8.40;99.90;;;;;;5005642;28;20065;-78
2023/12/20 10:53:08;;;;;;;2.10;1.90;;;8.40;99.90;;;;;;5012066;28;20132;-78
2023/12/20 10:55:35;;;;;;;3.03;2.00;;;8.40;99.90;;;;;;5005295;28;20442;-77
2023/12/20 10:58:09;;;;;;;3.20;2.22;;;8.30;99.90;;;;;;5025929;28;20042;-77
2023/12/20 11:00:44;;;;;;;3.78;2.05;;;8.20;99.90;;;;;;5013451;28;20493;-79
2023/12/20 11:03:12;;;;;;;4.45;2.92;;;8.20;99.90;;;;;;5008861;28;20045;-76
2023/12/20 11:05:50;;;;;;;5.28;2.50;;;8.20;99.90;;;;;;5007012;28;20512;-78
2023/12/20 11:08:26;;;;;;;2.45;2.00;;;8.20;99.90;;;;;;5007935;28;20042;-78
2023/12/20 11:11:20;;;;;;;4.55;2.33;;;8.20;99.90;;;;;;5011298;28;20050;-76
2023/12/20 11:13:59;;;;;;;3.40;2.25;;;8.20;99.90;;;;;;5005780;28;20562;-78
2023/12/20 11:16:26;;;;;;;2.92;2.13;;;8.10;99.90;;;;;;5010944;28;20054;-77
2023/12/20 11:19:06;;;;;;;2.75;2.17;;;8.10;99.90;;;;;;5009351;28;20046;-78
2023/12/20 11:21:34;;;;;;;6.70;2.20;;;8.00;99.90;;;;;;5011402;28;20100;-76
2023/12/20 11:24:03;;;;;;;2.80;2.33;;;8.10;99.90;;;;;;5009378;28;20142;-78
2023/12/20 11:26:30;;;;;;;3.25;2.50;;;8.10;99.90;;;;;;5007017;28;20284;-77
2023/12/20 11:29:35;;;;;;;3.20;2.47;;;8.00;99.90;;;;;;5008215;28;20094;-77
2023/12/20 11:32:25;;;;;;;3.65;2.20;;;8.00;99.90;;;;;;5006953;28;20053;-77
2023/12/20 11:35:14;;;;;;;3.47;2.55;;;8.00;99.90;;;;;;5008486;28;20069;-76
2023/12/20 11:37:42;;;;;;;5.32;2.47;;;7.90;99.90;;;;;;4996796;28;20046;-77
2023/12/20 11:40:15;;;;;;;3.80;1.98;;;7.90;99.90;;;;;;5011229;28;20117;-79
2023/12/20 11:42:45;;;;;;;3.28;2.20;;;7.80;99.90;;;;;;5012958;28;20100;-78
2023/12/20 11:45:15;;;;;;;3.13;2.30;;;7.80;99.90;;;;;;5011130;28;20050;-78
2023/12/20 11:47:47;;;;;;;5.40;2.67;;;7.80;99.90;;;;;;5012474;28;20050;-79
2023/12/20 11:50:15;;;;;;;3.38;2.05;;;7.90;99.90;;;;;;5008837;28;20073;-79
2023/12/20 11:52:42;;;;;;;3.75;2.08;;;7.90;99.90;;;;;;5026544;28;20046;-79
2023/12/20 11:55:08;;;;;;;4.88;1.90;;;8.00;99.90;;;;;;5011294;28;20068;-78
2023/12/20 11:57:36;;;;;;;5.85;2.40;;;8.00;99.90;;;;;;5010059;28;20052;-79
2023/12/20 12:00:04;;;;;;;5.22;2.00;;;8.10;99.90;;;;;;5009105;28;20078;-80
2023/12/20 12:02:31;;;;;;;5.63;2.53;;;8.10;99.90;;;;;;5012858;28;20078;-77
2023/12/20 12:04:59;;;;;;;5.10;1.83;;;8.20;99.90;;;;;;5012045;28;20088;-78
2023/12/20 12:07:26;;;;;;;4.10;2.53;;;8.20;99.90;;;;;;5011929;28;20054;-77
2023/12/20 12:09:53;;;;;;;3.50;2.33;;;8.20;99.90;;;;;;5008871;28;20050;-78
2023/12/20 12:12:20;;;;;;;10.70;2.65;;;8.20;99.90;;;;;;5008022;28;20062;-78
2023/12/20 12:14:47;;;;;;;3.88;2.10;;;8.20;99.90;;;;;;5014545;28;20069;-77
2023/12/20 12:17:15;;;;;;;10.10;2.53;;;8.10;99.90;;;;;;5011636;28;20038;-79
2023/12/20 12:19:42;;;;;;;6.28;2.00;;;8.10;99.90;;;;;;5010128;28;20057;-79
2023/12/20 12:22:16;;;;;;;3.92;2.47;;;8.00;99.90;;;;;;5010504;28;20053;-79
2023/12/20 12:24:44;;;;;;;5.45;2.00;;;7.90;99.90;;;;;;5011345;28;20139;-79
2023/12/20 12:27:13;;;;;;;8.82;3.50;;;7.90;99.90;;;;;;5016420;28;20481;-79
2023/12/20 12:29:40;;;;;;;4.93;2.83;;;7.80;99.90;;;;;;5009056;28;20090;-78
2023/12/20 12:32:08;;;;;;;11.13;3.05;;;7.80;99.90;;;;;;5009155;28;20041;-79
2023/12/20 12:34:36;;;;;;;5.57;2.72;;;7.70;99.90;;;;;;5014010;28;20054;-79
2023/12/20 12:37:06;;;;;;;7.00;3.03;;;7.70;99.90;;;;;;5012333;28;20042;-79
2023/12/20 12:39:33;;;;;;;;;;;7.60;99.90;;;;;;5012704;28;20429;-79
2023/12/20 12:42:00;;;;;;;5.80;2.65;;;7.60;99.90;;;;;;5011320;28;19957;-78
2023/12/20 12:44:27;;;;;;;7.20;2.80;;;7.50;99.90;;;;;;5011560;28;20065;-79
2023/12/20 12:46:54;;;;;;;10.55;3.42;;;7.50;99.90;;;;;;5008634;28;20081;-77
2023/12/20 12:49:23;;;;;;;6.68;2.38;;;7.50;99.90;;;;;;5011355;28;20104;-77
2023/12/20 12:51:51;;;;;;;8.40;2.65;;;7.50;99.90;;;;;;5012155;28;20046;-79
2023/12/20 12:54:18;;;;;;;3.97;2.78;;;7.50;99.90;;;;;;5007128;28;20053;-78
2023/12/20 12:56:47;;;;;;;7.28;2.65;;;7.50;99.90;;;;;;5013758;28;20096;-77
2023/12/20 12:59:14;;;;;;;4.32;2.90;;;7.50;99.90;;;;;;5010564;28;20046;-77
2023/12/20 13:01:40;;;;;;;11.30;3.17;;;7.50;99.90;;;;;;5009872;28;20054;-79